Time;durP1;ratioP1;P1;durP2;ratioP2;P2;SDS_P1;SDS_P2;PMS_P1;PMS_P2;Temp;Humidity;BMP_temperature;BMP_pressure;BME280_temperature;BME280_humidity;BME280_pressure;Samples;Min_cycle;Max_cycle;Signal;HPM_P1;HPM_P2
2021/05/08 00:01:53;;;;;;;0.50;0.40;;;4.80;99.90;;;;;;5070913;28;20281;-83
2021/05/08 00:04:20;;;;;;;0.50;0.40;;;4.90;99.90;;;;;;5070247;28;20199;-82
2021/05/08 00:06:46;;;;;;;0.50;0.40;;;4.90;99.90;;;;;;5070363;28;20523;-82
2021/05/08 00:09:13;;;;;;;0.50;0.43;;;4.80;99.90;;;;;;5070697;28;20190;-83
2021/05/08 00:11:40;;;;;;;0.50;0.40;;;4.70;99.90;;;;;;5069998;28;20218;-82
2021/05/08 00:14:07;;;;;;;0.50;0.40;;;4.70;99.90;;;;;;5070880;28;20198;-83
2021/05/08 00:16:34;;;;;;;0.50;0.40;;;4.70;99.90;;;;;;5069599;28;20201;-83
2021/05/08 00:19:01;;;;;;;0.50;0.40;;;4.70;99.90;;;;;;5070008;28;20218;-83
2021/05/08 00:21:28;;;;;;;0.50;0.50;;;4.60;99.90;;;;;;5069694;28;20224;-81
2021/05/08 00:23:54;;;;;;;0.50;0.40;;;4.60;99.90;;;;;;5070734;28;20212;-82
2021/05/08 00:26:20;;;;;;;0.50;0.40;;;4.60;99.90;;;;;;5070317;28;20686;-83
2021/05/08 00:28:48;;;;;;;0.50;0.40;;;4.60;99.90;;;;;;5077525;28;20205;-82
2021/05/08 00:31:14;;;;;;;0.50;0.40;;;4.60;99.90;;;;;;5057779;28;20218;-82
2021/05/08 00:33:40;;;;;;;0.50;0.40;;;4.60;99.90;;;;;;5056764;28;20636;-81
2021/05/08 00:36:08;;;;;;;0.50;0.40;;;4.60;99.90;;;;;;5057698;28;20194;-81
2021/05/08 00:38:35;;;;;;;0.50;0.40;;;4.70;99.90;;;;;;5057545;28;20211;-81
2021/05/08 00:41:01;;;;;;;0.50;0.40;;;4.80;99.90;;;;;;5056794;28;20221;-80
2021/05/08 00:43:27;;;;;;;0.50;0.40;;;4.80;99.90;;;;;;5057745;28;20280;-82
2021/05/08 00:45:54;;;;;;;0.50;0.40;;;4.80;99.90;;;;;;5058104;28;20205;-81
2021/05/08 00:48:20;;;;;;;0.50;0.40;;;4.80;99.90;;;;;;5058227;28;20517;-82
2021/05/08 00:50:49;;;;;;;0.50;0.40;;;4.80;99.90;;;;;;5058353;28;20635;-80
2021/05/08 00:53:17;;;;;;;2.88;2.78;;;4.80;99.90;;;;;;5057982;28;20202;-81
2021/05/08 00:55:43;;;;;;;0.50;0.40;;;4.70;99.90;;;;;;5057908;28;20224;-82
2021/05/08 00:58:09;;;;;;;0.50;0.40;;;4.70;99.90;;;;;;5066603;28;20205;-82
2021/05/08 01:00:37;;;;;;;0.50;0.40;;;4.70;99.90;;;;;;5058038;28;20218;-81
2021/05/08 01:03:03;;;;;;;0.50;0.40;;;4.70;99.90;;;;;;5058922;28;20207;-81
2021/05/08 01:05:32;;;;;;;0.50;0.40;;;4.80;99.90;;;;;;5058475;28;20645;-82
2021/05/08 01:08:00;;;;;;;0.50;0.43;;;4.90;99.90;;;;;;5058786;28;20281;-80
2021/05/08 01:10:28;;;;;;;0.50;0.40;;;5.00;99.90;;;;;;5059015;28;20210;-82
2021/05/08 01:12:56;;;;;;;0.50;0.40;;;5.10;99.90;;;;;;5058394;28;20195;-80
2021/05/08 01:15:22;;;;;;;0.60;0.40;;;5.20;99.90;;;;;;5058594;28;20270;-82
2021/05/08 01:17:49;;;;;;;0.50;0.40;;;5.30;99.90;;;;;;5058753;28;20203;-82
2021/05/08 01:20:16;;;;;;;0.50;0.40;;;5.20;99.90;;;;;;5071754;28;20206;-82
2021/05/08 01:22:43;;;;;;;0.50;0.40;;;5.20;99.90;;;;;;5067147;28;20205;-82
2021/05/08 01:25:14;;;;;;;0.50;0.40;;;5.10;99.90;;;;;;5060871;28;20252;-82
2021/05/08 01:27:44;;;;;;;0.50;0.40;;;5.10;99.90;;;;;;5067026;28;20190;-82
2021/05/08 01:30:12;;;;;;;0.50;0.40;;;5.00;99.90;;;;;;5078968;28;20220;-82
2021/05/08 01:32:39;;;;;;;0.50;0.40;;;5.00;99.90;;;;;;5078896;28;20198;-82
2021/05/08 01:35:06;;;;;;;0.60;0.50;;;5.10;99.90;;;;;;5078647;28;20201;-81
2021/05/08 01:37:32;;;;;;;0.50;0.40;;;5.20;99.90;;;;;;5078990;28;20190;-81
2021/05/08 01:40:05;;;;;;;0.50;0.40;;;5.20;99.90;;;;;;5079455;28;20224;-82
2021/05/08 01:42:32;;;;;;;0.50;0.40;;;5.30;99.90;;;;;;5078946;28;20231;-82
2021/05/08 01:44:58;;;;;;;0.50;0.40;;;5.30;99.90;;;;;;5078341;28;20205;-82
2021/05/08 01:47:24;;;;;;;0.50;0.40;;;5.30;99.90;;;;;;5078443;28;20228;-81
2021/05/08 01:49:50;;;;;;;0.50;0.40;;;5.30;99.90;;;;;;5078958;28;20295;-82
2021/05/08 01:52:17;;;;;;;0.50;0.40;;;5.20;99.90;;;;;;5078360;28;20193;-82
2021/05/08 01:54:43;;;;;;;0.50;0.40;;;5.20;99.90;;;;;;5079068;28;20208;-81
2021/05/08 01:57:10;;;;;;;0.50;0.40;;;5.20;99.90;;;;;;5075027;28;20205;-81
2021/05/08 01:59:37;;;;;;;0.50;0.40;;;5.10;99.90;;;;;;5061837;28;20210;-81
2021/05/08 02:02:04;;;;;;;0.50;0.50;;;5.10;99.90;;;;;;5058498;28;20218;-82
2021/05/08 02:04:30;;;;;;;0.50;0.40;;;5.10;99.90;;;;;;5060711;28;20250;-82
2021/05/08 02:07:00;;;;;;;0.50;0.40;;;5.10;99.90;;;;;;5063504;28;20194;-82
2021/05/08 02:09:27;;;;;;;0.50;0.40;;;5.00;99.90;;;;;;5062863;28;20190;-82
2021/05/08 02:11:53;;;;;;;0.60;0.40;;;5.00;99.90;;;;;;5064889;28;20219;-83
2021/05/08 02:14:20;;;;;;;0.50;0.40;;;5.00;99.90;;;;;;5065428;28;20190;-82
2021/05/08 02:16:46;;;;;;;0.70;0.70;;;5.10;99.90;;;;;;5066013;28;20198;-83
2021/05/08 02:19:12;;;;;;;0.50;0.40;;;5.10;99.90;;;;;;5068872;28;20224;-82
2021/05/08 02:21:39;;;;;;;0.50;0.40;;;5.10;99.90;;;;;;5070811;28;20219;-81
2021/05/08 02:24:06;;;;;;;0.50;0.40;;;5.10;99.90;;;;;;5073409;28;20191;-82
2021/05/08 02:26:32;;;;;;;0.50;0.40;;;5.10;99.90;;;;;;5069062;28;20202;-82
2021/05/08 02:28:58;;;;;;;0.50;0.40;;;5.10;99.90;;;;;;5076687;28;20246;-80
2021/05/08 02:31:25;;;;;;;0.50;0.40;;;5.10;99.90;;;;;;5068769;28;20219;-82
2021/05/08 02:33:52;;;;;;;0.50;0.40;;;5.10;99.90;;;;;;5067674;28;20267;-81
2021/05/08 02:36:18;;;;;;;0.50;0.40;;;5.10;99.90;;;;;;5068810;28;20721;-82
2021/05/08 02:38:44;;;;;;;0.50;0.40;;;5.10;99.90;;;;;;5068049;28;20583;-82
2021/05/08 02:41:10;;;;;;;0.95;0.85;;;5.10;99.90;;;;;;5071120;28;20226;-80
2021/05/08 02:43:36;;;;;;;0.50;0.40;;;5.20;99.90;;;;;;5069030;28;20194;-82
2021/05/08 02:46:03;;;;;;;0.50;0.40;;;5.20;99.90;;;;;;5070822;28;20287;-82
2021/05/08 02:48:30;;;;;;;0.50;0.40;;;5.20;99.90;;;;;;5069837;28;20681;-82
2021/05/08 02:50:56;;;;;;;0.50;0.40;;;5.20;99.90;;;;;;5070499;28;20495;-83
2021/05/08 02:53:22;;;;;;;0.50;0.40;;;5.20;99.90;;;;;;5069707;28;20195;-83
2021/05/08 02:55:48;;;;;;;0.50;0.50;;;5.20;99.90;;;;;;5070028;28;20205;-83
2021/05/08 02:58:15;;;;;;;0.50;0.40;;;5.10;99.90;;;;;;5077854;28;20198;-82
2021/05/08 03:00:41;;;;;;;0.50;0.40;;;5.00;99.90;;;;;;5087489;28;20216;-82
2021/05/08 03:03:08;;;;;;;0.50;0.40;;;5.00;99.90;;;;;;5088948;28;20207;-82
2021/05/08 03:05:35;;;;;;;0.50;0.40;;;5.10;99.90;;;;;;5090123;28;20190;-83
2021/05/08 03:08:01;;;;;;;0.50;0.40;;;5.10;99.90;;;;;;5090188;28;20198;-82
2021/05/08 03:10:27;;;;;;;0.50;0.50;;;5.10;99.90;;;;;;5089842;28;20216;-83
2021/05/08 03:12:54;;;;;;;0.50;0.50;;;5.20;99.90;;;;;;5089858;28;20205;-82
2021/05/08 03:15:22;;;;;;;0.50;0.50;;;5.20;99.90;;;;;;5089939;28;20204;-82
2021/05/08 03:17:48;;;;;;;0.50;0.40;;;5.30;99.90;;;;;;5089670;28;20194;-82
2021/05/08 03:20:15;;;;;;;0.50;0.40;;;5.40;99.90;;;;;;5089659;28;20225;-83
2021/05/08 03:22:42;;;;;;;0.50;0.40;;;5.40;99.90;;;;;;5088802;28;20217;-83
2021/05/08 03:25:09;;;;;;;0.50;0.50;;;5.40;99.90;;;;;;5089344;28;20216;-82
2021/05/08 03:27:35;;;;;;;0.50;0.40;;;5.60;99.90;;;;;;5085453;28;20223;-82
2021/05/08 03:30:01;;;;;;;0.50;0.40;;;5.70;99.90;;;;;;5077185;28;20191;-81
2021/05/08 03:32:27;;;;;;;0.50;0.40;;;5.70;99.90;;;;;;5069695;28;20199;-82
2021/05/08 03:34:54;;;;;;;0.50;0.40;;;5.80;99.90;;;;;;5068866;28;20901;-81
2021/05/08 03:37:20;;;;;;;0.50;0.40;;;5.80;99.90;;;;;;5068815;28;20304;-83
2021/05/08 03:39:47;;;;;;;0.60;0.60;;;5.90;99.90;;;;;;5068260;28;20210;-80
2021/05/08 03:42:13;;;;;;;0.50;0.50;;;5.90;99.90;;;;;;5068688;28;20716;-80
2021/05/08 03:44:39;;;;;;;0.50;0.40;;;5.80;99.90;;;;;;5068122;28;20201;-80
2021/05/08 03:47:06;;;;;;;0.50;0.40;;;5.70;99.90;;;;;;5068077;28;20221;-80
2021/05/08 03:49:32;;;;;;;0.50;0.40;;;5.70;99.90;;;;;;5068197;28;20198;-80
2021/05/08 03:52:02;;;;;;;2.97;2.83;;;5.60;99.90;;;;;;5064026;28;20218;-80
2021/05/08 03:54:28;;;;;;;0.50;0.40;;;5.50;99.90;;;;;;5068149;28;20186;-81
2021/05/08 03:56:57;;;;;;;0.50;0.40;;;5.50;99.90;;;;;;5070642;28;20213;-80
2021/05/08 03:59:23;;;;;;;0.50;0.40;;;5.40;99.90;;;;;;5079526;28;20606;-80
2021/05/08 04:01:50;;;;;;;0.50;0.50;;;5.40;99.90;;;;;;5089116;28;20214;-80
2021/05/08 04:04:16;;;;;;;0.50;0.40;;;5.50;99.90;;;;;;5089802;28;20194;-81
2021/05/08 04:06:42;;;;;;;0.50;0.40;;;5.60;99.90;;;;;;5087468;28;20221;-80
2021/05/08 04:09:10;;;;;;;0.50;0.40;;;5.60;99.90;;;;;;5088207;28;20255;-80
2021/05/08 04:11:37;;;;;;;0.50;0.40;;;5.60;99.90;;;;;;5088310;28;20594;-80
2021/05/08 04:14:04;;;;;;;0.50;0.40;;;5.50;99.90;;;;;;5088856;28;20586;-81
2021/05/08 04:16:31;;;;;;;0.75;0.75;;;5.50;99.90;;;;;;5091187;28;20190;-81
2021/05/08 04:18:58;;;;;;;0.50;0.40;;;5.50;99.90;;;;;;5091762;28;20214;-80
2021/05/08 04:21:24;;;;;;;0.50;0.40;;;5.50;99.90;;;;;;5090373;28;20217;-80
2021/05/08 04:23:50;;;;;;;0.50;0.40;;;5.50;99.90;;;;;;5092025;28;20230;-80
2021/05/08 04:26:17;;;;;;;0.50;0.40;;;5.40;99.90;;;;;;5089886;28;20194;-80
2021/05/08 04:28:43;;;;;;;0.50;0.40;;;5.40;99.90;;;;;;5080010;28;20191;-79
2021/05/08 04:31:11;;;;;;;0.50;0.45;;;5.30;99.90;;;;;;5091162;28;20218;-80
2021/05/08 04:33:37;;;;;;;0.50;0.50;;;5.30;99.90;;;;;;5091830;28;20211;-80
2021/05/08 04:36:04;;;;;;;0.50;0.40;;;5.30;99.90;;;;;;5091314;28;20201;-80
2021/05/08 04:38:30;;;;;;;0.50;0.40;;;5.20;99.90;;;;;;5091785;28;20190;-80
2021/05/08 04:40:56;;;;;;;0.50;0.40;;;5.20;99.90;;;;;;5090224;28;20230;-80
2021/05/08 04:43:23;;;;;;;0.50;0.50;;;5.20;99.90;;;;;;5090694;28;20197;-80
2021/05/08 04:45:49;;;;;;;0.50;0.40;;;5.30;99.90;;;;;;5091013;28;20208;-80
2021/05/08 04:48:22;;;;;;;0.50;0.40;;;5.30;99.90;;;;;;5091522;28;20640;-80
2021/05/08 04:50:48;;;;;;;0.50;0.40;;;5.20;99.90;;;;;;5090361;28;20266;-77
2021/05/08 04:53:15;;;;;;;0.50;0.40;;;5.30;99.90;;;;;;5090105;28;20194;-80
2021/05/08 04:55:41;;;;;;;0.50;0.40;;;5.40;99.90;;;;;;5091112;28;20194;-79
2021/05/08 04:58:07;;;;;;;2.97;2.78;;;5.50;99.90;;;;;;5084371;28;20197;-80
2021/05/08 05:00:33;;;;;;;3.33;1.25;;;5.70;99.90;;;;;;5085601;28;20218;-80
2021/05/08 05:03:00;;;;;;;0.50;0.40;;;5.80;99.90;;;;;;5089516;28;20194;-80
2021/05/08 05:05:27;;;;;;;0.50;0.40;;;5.90;99.90;;;;;;5089598;28;20190;-80
2021/05/08 05:07:53;;;;;;;1.33;1.27;;;6.00;99.90;;;;;;5089476;28;20198;-79
2021/05/08 05:10:19;;;;;;;0.50;0.40;;;6.10;99.90;;;;;;5089419;28;20214;-80
2021/05/08 05:12:46;;;;;;;0.50;0.40;;;6.20;99.90;;;;;;5089709;28;20198;-80
2021/05/08 05:15:16;;;;;;;0.50;0.40;;;6.20;99.90;;;;;;5089323;28;20190;-80
2021/05/08 05:17:42;;;;;;;0.50;0.40;;;6.30;99.90;;;;;;5089911;28;20220;-80
2021/05/08 05:20:11;;;;;;;0.50;0.40;;;6.50;99.90;;;;;;5090108;28;20218;-79
2021/05/08 05:22:38;;;;;;;1.60;1.42;;;6.60;99.90;;;;;;5090105;28;20201;-80
2021/05/08 05:25:06;;;;;;;0.50;0.40;;;6.70;99.90;;;;;;5089287;28;20689;-79
2021/05/08 05:27:32;;;;;;;0.50;0.40;;;6.90;99.90;;;;;;5084962;28;20200;-80
2021/05/08 05:29:59;;;;;;;0.50;0.40;;;7.00;99.90;;;;;;5080673;28;20216;-81
2021/05/08 05:32:25;;;;;;;0.50;0.40;;;7.20;99.90;;;;;;5089460;28;20194;-82
2021/05/08 05:34:52;;;;;;;0.50;0.40;;;7.40;99.90;;;;;;5089829;28;20202;-82
2021/05/08 05:37:18;;;;;;;1.67;1.58;;;7.70;99.90;;;;;;5090010;28;20194;-80
2021/05/08 05:39:45;;;;;;;2.63;2.47;;;7.80;99.90;;;;;;5089272;28;20213;-80
2021/05/08 05:42:11;;;;;;;0.50;0.40;;;8.10;99.90;;;;;;5087265;22;20564;-77
2021/05/08 05:44:38;;;;;;;0.50;0.40;;;8.30;99.90;;;;;;5073284;28;20198;-77
2021/05/08 05:47:07;;;;;;;0.50;0.40;;;8.60;99.90;;;;;;5072855;28;20190;-78
2021/05/08 05:49:33;;;;;;;0.50;0.40;;;8.80;99.90;;;;;;5073331;28;20243;-77
2021/05/08 05:51:59;;;;;;;0.50;0.40;;;9.10;99.90;;;;;;5085023;28;20217;-77
2021/05/08 05:54:26;;;;;;;0.88;0.88;;;9.30;99.90;;;;;;5093245;28;20280;-77
2021/05/08 05:56:53;;;;;;;0.50;0.50;;;9.60;99.90;;;;;;5091882;28;20205;-77
2021/05/08 05:59:19;;;;;;;0.50;0.40;;;9.90;99.90;;;;;;5092961;28;20206;-77
2021/05/08 06:01:45;;;;;;;2.65;1.65;;;10.20;99.90;;;;;;5092603;28;20769;-77
2021/05/08 06:04:11;;;;;;;1.92;1.80;;;10.60;99.90;;;;;;5093461;28;20282;-77
2021/05/08 06:06:38;;;;;;;0.50;0.40;;;11.20;99.90;;;;;;5093637;28;20193;-78
2021/05/08 06:09:04;;;;;;;0.60;0.60;;;12.00;99.90;;;;;;5092966;28;20202;-77
2021/05/08 06:11:30;;;;;;;0.60;0.50;;;12.80;99.90;;;;;;5093404;28;20217;-79
2021/05/08 06:13:58;;;;;;;0.50;0.40;;;13.90;99.90;;;;;;5094056;28;20196;-78
2021/05/08 06:16:24;;;;;;;0.87;0.87;;;15.10;99.90;;;;;;5093880;28;20221;-78
2021/05/08 06:18:50;;;;;;;1.17;1.08;;;15.60;98.20;;;;;;5093311;28;20470;-77
2021/05/08 06:21:16;;;;;;;0.77;0.77;;;16.20;93.40;;;;;;5092784;28;20213;-77
2021/05/08 06:23:42;;;;;;;0.77;0.70;;;16.30;91.10;;;;;;5093162;28;20462;-76
2021/05/08 06:26:09;;;;;;;2.17;2.00;;;16.80;86.70;;;;;;5093459;28;20464;-78
2021/05/08 06:28:35;;;;;;;1.13;1.03;;;16.70;83.50;;;;;;5093083;28;21302;-78
2021/05/08 06:31:02;;;;;;;1.53;0.63;;;16.80;84.10;;;;;;5084779;28;20496;-76
2021/05/08 06:33:28;;;;;;;0.50;0.50;;;16.70;80.40;;;;;;5093204;28;20436;-78
2021/05/08 06:35:55;;;;;;;0.50;0.50;;;16.40;78.80;;;;;;5093684;28;20892;-78
2021/05/08 06:38:21;;;;;;;0.60;0.60;;;16.60;80.40;;;;;;5092880;28;20439;-78
2021/05/08 06:40:48;;;;;;;0.50;0.40;;;16.40;79.70;;;;;;5092543;28;20548;-78
2021/05/08 06:43:14;;;;;;;0.90;0.90;;;16.20;77.60;;;;;;5092516;28;20452;-77
2021/05/08 06:45:40;;;;;;;1.37;1.27;;;15.90;77.40;;;;;;5092891;28;20440;-77
2021/05/08 06:48:08;;;;;;;0.60;0.60;;;15.60;80.80;;;;;;5092630;28;20442;-77
2021/05/08 06:50:37;;;;;;;1.00;0.97;;;15.30;81.20;;;;;;5092296;28;20438;-77
2021/05/08 06:53:04;;;;;;;0.73;0.73;;;15.20;82.80;;;;;;5092504;28;20440;-78
2021/05/08 06:55:56;;;;;;;1.70;1.60;;;15.00;83.00;;;;;;5093580;28;20817;-78
2021/05/08 06:58:22;;;;;;;7.50;3.23;;;14.80;82.90;;;;;;5092418;28;20457;-78
2021/05/08 07:00:48;;;;;;;0.50;0.40;;;14.60;83.30;;;;;;5093394;28;20517;-78
2021/05/08 07:03:15;;;;;;;0.70;0.67;;;14.20;84.30;;;;;;5092327;28;20439;-77
2021/05/08 07:05:41;;;;;;;1.73;1.63;;;14.10;87.40;;;;;;5092562;28;20800;-77
2021/05/08 07:08:08;;;;;;;0.60;0.60;;;14.00;85.20;;;;;;5092653;28;20944;-79
2021/05/08 07:10:43;;;;;;;1.17;1.10;;;13.90;90.10;;;;;;5091968;28;20296;-79
2021/05/08 07:13:10;;;;;;;0.68;0.68;;;13.70;88.50;;;;;;5091509;28;20253;-76
2021/05/08 07:15:36;;;;;;;1.20;0.73;;;13.30;90.20;;;;;;5091418;28;20197;-78
2021/05/08 07:18:04;;;;;;;1.17;0.98;;;13.30;91.20;;;;;;5093203;28;20569;-77
2021/05/08 07:20:32;;;;;;;6.72;0.98;;;13.20;90.50;;;;;;5091574;28;20267;-78
2021/05/08 07:22:59;;;;;;;1.40;1.30;;;12.80;91.10;;;;;;5092030;28;20216;-77
2021/05/08 07:25:25;;;;;;;1.73;1.02;;;12.70;91.40;;;;;;5091890;28;20193;-77
2021/05/08 07:27:52;;;;;;;1.08;0.70;;;12.60;91.90;;;;;;5091452;28;20547;-78
2021/05/08 07:30:19;;;;;;;0.60;0.60;;;12.50;91.90;;;;;;5091649;28;20190;-78
2021/05/08 07:32:45;;;;;;;0.80;0.77;;;12.40;94.90;;;;;;5091818;28;20220;-79
2021/05/08 07:35:12;;;;;;;0.50;0.40;;;12.40;94.80;;;;;;5093485;28;20190;-78
2021/05/08 07:37:40;;;;;;;0.50;0.40;;;12.50;95.00;;;;;;5093153;28;20208;-79
2021/05/08 07:40:10;;;;;;;0.50;0.40;;;12.60;96.70;;;;;;5093607;28;20216;-78
2021/05/08 07:42:36;;;;;;;0.50;0.40;;;12.70;96.20;;;;;;5092308;28;20294;-79
2021/05/08 07:45:02;;;;;;;0.50;0.40;;;12.70;96.70;;;;;;5093921;28;20201;-79
2021/05/08 07:47:29;;;;;;;1.75;1.15;;;12.80;96.60;;;;;;5094107;28;20808;-78
2021/05/08 07:49:55;;;;;;;2.92;1.27;;;12.70;95.10;;;;;;5096202;28;20193;-78
2021/05/08 07:52:21;;;;;;;1.55;1.45;;;12.80;96.20;;;;;;5096943;28;20202;-77
2021/05/08 07:54:48;;;;;;;0.50;0.40;;;12.50;94.80;;;;;;5097691;28;20197;-79
2021/05/08 07:57:15;;;;;;;0.85;0.85;;;12.60;97.80;;;;;;5096721;28;20209;-78
2021/05/08 07:59:41;;;;;;;1.38;0.75;;;12.90;96.00;;;;;;5097775;28;20209;-79
2021/05/08 08:02:07;;;;;;;0.50;0.40;;;12.90;97.00;;;;;;5098122;28;20220;-77
2021/05/08 08:04:33;;;;;;;0.60;0.60;;;13.00;96.10;;;;;;5097081;28;20200;-78
2021/05/08 08:06:59;;;;;;;0.68;0.68;;;13.10;95.20;;;;;;5096732;28;20189;-77
2021/05/08 08:09:26;;;;;;;0.82;0.82;;;13.30;95.00;;;;;;5097727;28;20197;-78
2021/05/08 08:11:53;;;;;;;2.60;1.38;;;13.30;96.20;;;;;;5096928;28;20243;-78
2021/05/08 08:14:20;;;;;;;0.98;0.98;;;13.40;93.60;;;;;;5096897;28;20204;-78
2021/05/08 08:16:46;;;;;;;2.05;1.65;;;13.30;93.00;;;;;;5097280;28;20193;-76
2021/05/08 08:19:12;;;;;;;0.50;0.40;;;13.20;93.80;;;;;;5097573;28;20209;-77
2021/05/08 08:21:38;;;;;;;1.50;0.73;;;13.40;93.70;;;;;;5096911;28;20563;-77
2021/05/08 08:24:05;;;;;;;1.48;1.38;;;13.50;94.20;;;;;;5096230;28;20193;-77
2021/05/08 08:26:31;;;;;;;2.78;1.48;;;13.70;94.00;;;;;;5097186;28;20223;-79
2021/05/08 08:28:58;;;;;;;0.85;0.85;;;13.70;92.10;;;;;;5096141;28;20197;-79
2021/05/08 08:31:26;;;;;;;0.50;0.40;;;13.60;92.80;;;;;;5096129;28;20220;-78
2021/05/08 08:33:53;;;;;;;0.50;0.45;;;13.60;94.40;;;;;;5096788;28;20291;-77
2021/05/08 08:36:19;;;;;;;1.42;1.33;;;13.70;92.60;;;;;;5097428;28;20600;-78
2021/05/08 08:38:45;;;;;;;0.82;0.50;;;13.50;92.30;;;;;;5096794;28;20204;-78
2021/05/08 08:41:12;;;;;;;0.50;0.40;;;13.60;94.00;;;;;;5097059;28;20221;-78
2021/05/08 08:43:39;;;;;;;0.50;0.40;;;13.70;92.90;;;;;;5101095;28;20627;-78
2021/05/08 08:46:06;;;;;;;2.15;1.13;;;13.80;93.50;;;;;;5101889;28;20598;-79
2021/05/08 08:48:32;;;;;;;0.50;0.50;;;13.90;92.30;;;;;;5096481;28;20219;-79
2021/05/08 08:50:59;;;;;;;1.00;0.80;;;13.70;93.00;;;;;;5097038;28;20232;-76
2021/05/08 08:53:25;;;;;;;0.50;0.40;;;13.70;92.00;;;;;;5096292;28;20255;-78
2021/05/08 08:55:54;;;;;;;1.00;1.00;;;13.60;92.70;;;;;;5096646;28;20200;-78
2021/05/08 08:58:26;;;;;;;4.05;1.83;;;13.70;92.70;;;;;;5096179;28;20197;-79
2021/05/08 09:00:54;;;;;;;0.85;0.82;;;13.60;91.60;;;;;;5095947;28;20307;-79
2021/05/08 09:03:22;;;;;;;1.58;1.20;;;13.60;92.90;;;;;;5096360;28;20205;-79
2021/05/08 09:05:48;;;;;;;1.15;0.88;;;13.70;93.10;;;;;;5095856;28;20193;-79
2021/05/08 09:08:14;;;;;;;0.87;0.80;;;13.80;93.00;;;;;;5095653;28;20204;-78
2021/05/08 09:10:40;;;;;;;0.70;0.70;;;13.70;92.30;;;;;;5095905;28;20435;-78
2021/05/08 09:13:15;;;;;;;0.50;0.30;;;13.80;92.20;;;;;;5096240;28;20199;-79
2021/05/08 09:15:43;;;;;;;0.50;0.40;;;13.90;92.50;;;;;;5096239;28;20575;-79
2021/05/08 09:18:30;;;;;;;1.33;0.68;;;14.10;92.70;;;;;;5095873;28;20200;-78
2021/05/08 09:20:57;;;;;;;1.67;1.58;;;14.20;91.20;;;;;;5095604;28;20610;-79
2021/05/08 09:23:24;;;;;;;0.50;0.40;;;14.10;90.90;;;;;;5095812;28;20197;-78
2021/05/08 09:26:04;;;;;;;1.90;1.45;;;14.30;90.90;;;;;;5096069;28;20762;-79
2021/05/08 09:28:31;;;;;;;0.50;0.47;;;14.30;88.60;;;;;;5095390;28;20232;-78
2021/05/08 09:30:58;;;;;;;0.50;0.40;;;14.20;91.60;;;;;;5095113;28;20988;-80
2021/05/08 09:33:25;;;;;;;2.27;0.93;;;14.30;90.60;;;;;;5095960;28;20781;-78
2021/05/08 09:36:02;;;;;;;4.47;1.53;;;14.50;90.50;;;;;;5096177;28;20432;-78
2021/05/08 09:38:37;;;;;;;0.50;0.40;;;14.50;89.70;;;;;;5095660;28;21081;-77
2021/05/08 09:41:04;;;;;;;0.73;0.73;;;15.00;89.30;;;;;;5094538;28;20497;-77
2021/05/08 09:43:31;;;;;;;1.00;1.00;;;15.30;86.90;;;;;;5095198;28;20528;-80
2021/05/08 09:45:58;;;;;;;0.50;0.40;;;15.60;86.30;;;;;;5095791;28;20948;-79
2021/05/08 09:48:27;;;;;;;4.57;0.60;;;16.00;84.90;;;;;;5095859;28;20998;-78
2021/05/08 09:50:54;;;;;;;0.50;0.40;;;16.30;82.60;;;;;;5094416;28;20446;-79
2021/05/08 09:53:28;;;;;;;0.50;0.33;;;16.40;80.90;;;;;;5095616;28;20442;-78
2021/05/08 09:55:55;;;;;;;1.33;1.23;;;16.30;81.30;;;;;;5095228;28;20442;-78
2021/05/08 09:58:23;;;;;;;0.70;0.70;;;15.70;80.10;;;;;;5095152;28;20435;-78
2021/05/08 10:00:50;;;;;;;0.50;0.40;;;15.50;81.60;;;;;;5095047;28;20555;-80
2021/05/08 10:03:18;;;;;;;0.77;0.77;;;15.60;84.80;;;;;;5094457;28;20435;-79
2021/05/08 10:05:48;;;;;;;8.07;0.80;;;16.00;81.70;;;;;;5095595;28;20474;-77
2021/05/08 10:08:15;;;;;;;0.50;0.40;;;15.90;81.10;;;;;;5094734;28;20444;-78
2021/05/08 10:10:42;;;;;;;1.33;0.70;;;16.20;81.90;;;;;;5095134;28;21007;-79
2021/05/08 10:13:10;;;;;;;0.60;0.50;;;16.40;80.30;;;;;;5093315;28;20432;-79
2021/05/08 10:15:38;;;;;;;0.67;0.67;;;16.90;76.40;;;;;;5095456;28;20819;-78
2021/05/08 10:18:07;;;;;;;0.50;0.40;;;16.90;71.80;;;;;;5094657;28;20441;-78
2021/05/08 10:20:34;;;;;;;0.70;0.50;;;17.10;75.20;;;;;;5095081;28;20495;-78
2021/05/08 10:23:06;;;;;;;0.60;0.50;;;17.30;75.00;;;;;;5094818;28;20467;-79
2021/05/08 10:25:33;;;;;;;0.50;0.40;;;17.30;72.10;;;;;;5094937;28;20435;-79
2021/05/08 10:28:00;;;;;;;0.67;0.67;;;17.30;73.40;;;;;;5093951;28;20443;-78
2021/05/08 10:30:30;;;;;;;0.60;0.50;;;17.30;70.70;;;;;;5095073;28;20426;-79
2021/05/08 10:32:58;;;;;;;0.50;0.33;;;17.30;71.20;;;;;;5100930;28;20462;-78
2021/05/08 10:35:38;;;;;;;0.50;0.40;;;17.70;70.00;;;;;;5102584;28;20975;-79
2021/05/08 10:38:14;;;;;;;1.97;0.73;;;17.80;68.80;;;;;;5102434;28;20435;-78
2021/05/08 10:40:54;;;;;;;0.60;0.50;;;17.50;66.90;;;;;;5102155;28;20505;-78
2021/05/08 10:43:39;;;;;;;2.67;2.13;;;17.10;69.50;;;;;;5102859;28;20927;-79
2021/05/08 10:46:05;;;;;;;0.73;0.70;;;17.10;69.40;;;;;;5102477;28;20439;-80
2021/05/08 10:48:32;;;;;;;0.50;0.40;;;16.90;69.70;;;;;;5096384;28;20443;-79
2021/05/08 10:50:59;;;;;;;0.67;0.63;;;16.70;69.90;;;;;;5094293;28;20459;-77
2021/05/08 10:53:42;;;;;;;0.53;0.37;;;16.50;71.30;;;;;;5095729;28;20873;-79
2021/05/08 10:56:30;;;;;;;2.53;1.13;;;16.40;70.70;;;;;;5095754;28;20831;-77
2021/05/08 10:59:05;;;;;;;0.97;0.87;;;16.10;71.90;;;;;;5094783;28;20930;-78
2021/05/08 11:01:39;;;;;;;0.60;0.57;;;16.10;72.10;;;;;;5094947;28;20452;-78
2021/05/08 11:04:06;;;;;;;0.70;0.53;;;16.20;72.60;;;;;;5094955;28;20437;-78
2021/05/08 11:06:32;;;;;;;0.50;0.40;;;15.90;73.50;;;;;;5095549;28;20984;-78
2021/05/08 11:08:59;;;;;;;0.50;0.40;;;15.70;74.40;;;;;;5100939;28;20469;-79
2021/05/08 11:11:44;;;;;;;1.63;1.13;;;15.80;74.60;;;;;;5102586;28;20465;-78
2021/05/08 11:14:11;;;;;;;0.73;0.67;;;15.90;73.90;;;;;;5103686;28;20983;-78
2021/05/08 11:16:54;;;;;;;1.20;1.17;;;16.10;76.00;;;;;;5104176;28;20932;-78
2021/05/08 11:19:21;;;;;;;0.60;0.50;;;16.30;75.20;;;;;;5101533;28;20467;-80
2021/05/08 11:21:49;;;;;;;1.37;1.27;;;16.50;75.60;;;;;;5093834;28;20461;-78
2021/05/08 11:24:41;;;;;;;0.50;0.40;;;16.20;70.70;;;;;;5095205;28;20442;-79
2021/05/08 11:27:27;;;;;;;0.50;0.40;;;16.20;72.20;;;;;;5098045;28;20940;-78
2021/05/08 11:30:07;;;;;;;2.07;0.73;;;16.30;73.50;;;;;;5097442;28;21047;-78
2021/05/08 11:32:45;;;;;;;0.50;0.40;;;16.10;73.80;;;;;;5097695;28;20487;-78
2021/05/08 11:35:11;;;;;;;0.53;0.43;;;16.10;75.80;;;;;;5104456;28;20889;-78
2021/05/08 11:37:38;;;;;;;0.60;0.50;;;16.10;74.00;;;;;;5095554;28;20548;-78
2021/05/08 11:40:04;;;;;;;0.60;0.50;;;16.20;75.90;;;;;;5095309;28;20895;-78
2021/05/08 11:42:31;;;;;;;4.27;1.97;;;16.50;76.40;;;;;;5095999;28;20526;-79
2021/05/08 11:45:00;;;;;;;0.50;0.30;;;16.40;71.90;;;;;;5095452;28;20956;-78
2021/05/08 11:47:28;;;;;;;3.23;1.00;;;16.30;73.30;;;;;;5096012;28;20480;-78
2021/05/08 11:50:02;;;;;;;0.67;0.60;;;15.70;74.60;;;;;;5095523;28;20522;-77
2021/05/08 11:52:33;;;;;;;10.97;1.70;;;15.40;76.80;;;;;;5095666;28;20454;-77
2021/05/08 11:54:59;;;;;;;0.50;0.40;;;15.30;77.30;;;;;;5095472;28;20456;-77
2021/05/08 11:57:26;;;;;;;0.50;0.40;;;15.20;77.80;;;;;;5095847;28;20851;-79
2021/05/08 11:59:52;;;;;;;0.50;0.40;;;15.20;77.70;;;;;;5094893;28;20486;-76
2021/05/08 12:02:21;;;;;;;0.60;0.50;;;15.20;77.00;;;;;;5095303;28;20459;-77
2021/05/08 12:04:52;;;;;;;1.67;1.57;;;15.30;77.20;;;;;;5095185;28;20936;-78
2021/05/08 12:07:24;;;;;;;1.00;0.87;;;15.50;77.40;;;;;;5095165;28;20742;-79
2021/05/08 12:09:51;;;;;;;0.93;0.67;;;15.50;75.70;;;;;;5095610;28;20500;-78
2021/05/08 12:12:17;;;;;;;0.70;0.70;;;15.50;76.00;;;;;;5101622;28;20991;-77
2021/05/08 12:14:45;;;;;;;1.03;0.97;;;15.50;76.50;;;;;;5097522;28;20475;-73
2021/05/08 12:17:12;;;;;;;0.50;0.40;;;15.20;77.40;;;;;;5095587;28;20444;-77
2021/05/08 12:19:42;;;;;;;0.60;0.50;;;15.20;81.50;;;;;;5094872;28;20475;-78
2021/05/08 12:22:09;;;;;;;0.67;0.67;;;14.90;83.40;;;;;;5094835;28;20462;-78
2021/05/08 12:24:36;;;;;;;0.60;0.50;;;14.80;84.10;;;;;;5095093;28;20447;-79
2021/05/08 12:27:02;;;;;;;0.50;0.40;;;14.80;88.30;;;;;;5095513;28;21121;-77
2021/05/08 12:29:53;;;;;;;0.70;0.70;;;14.80;88.50;;;;;;5094748;28;20497;-78
2021/05/08 12:32:19;;;;;;;0.50;0.40;;;14.90;93.00;;;;;;5073926;28;20455;-77
2021/05/08 12:34:52;;;;;;;0.50;0.40;;;14.80;93.40;;;;;;5073918;28;20964;-75
2021/05/08 12:37:18;;;;;;;1.08;0.70;;;14.50;96.90;;;;;;5073918;28;20663;-79
2021/05/08 12:39:45;;;;;;;1.75;0.85;;;14.30;99.90;;;;;;5074176;28;20214;-79
2021/05/08 12:42:12;;;;;;;0.60;0.53;;;14.10;99.90;;;;;;5074112;28;20299;-78
2021/05/08 12:44:40;;;;;;;0.50;0.45;;;14.10;99.90;;;;;;5073830;28;20425;-77
2021/05/08 12:47:16;;;;;;;0.77;0.68;;;13.80;99.90;;;;;;5074629;28;20221;-78
2021/05/08 12:50:07;;;;;;;0.50;0.45;;;13.70;99.90;;;;;;5074599;28;20666;-78
2021/05/08 12:52:34;;;;;;;3.40;1.27;;;13.60;99.90;;;;;;5074255;28;20316;-80
2021/05/08 12:55:01;;;;;;;0.95;0.75;;;13.40;99.90;;;;;;5074310;28;20202;-78